sensor_id;sensor_type;location;lat;lon;timestamp;P1;durP1;ratioP1;P2;durP2;ratioP2
75087;SDS011;63664;44.868;40.600;2023-04-24T00:00:17;3.60;;;1.80;;
75087;SDS011;63664;44.868;40.600;2023-04-24T00:02:43;3.72;;;2.33;;
75087;SDS011;63664;44.868;40.600;2023-04-24T00:07:40;4.55;;;2.50;;
75087;SDS011;63664;44.868;40.600;2023-04-24T00:10:08;4.30;;;2.17;;
75087;SDS011;63664;44.868;40.600;2023-04-24T00:12:35;9.02;;;2.30;;
75087;SDS011;63664;44.868;40.600;2023-04-24T00:15:02;3.08;;;2.20;;
75087;SDS011;63664;44.868;40.600;2023-04-24T00:17:31;5.35;;;2.13;;
75087;SDS011;63664;44.868;40.600;2023-04-24T00:20:02;3.90;;;2.42;;
75087;SDS011;63664;44.868;40.600;2023-04-24T00:22:30;6.28;;;2.50;;
75087;SDS011;63664;44.868;40.600;2023-04-24T00:25:00;4.32;;;2.75;;
75087;SDS011;63664;44.868;40.600;2023-04-24T00:27:26;4.05;;;2.53;;
75087;SDS011;63664;44.868;40.600;2023-04-24T00:29:55;5.72;;;2.47;;
75087;SDS011;63664;44.868;40.600;2023-04-24T00:32:26;5.82;;;2.60;;
75087;SDS011;63664;44.868;40.600;2023-04-24T00:34:55;4.72;;;2.33;;
75087;SDS011;63664;44.868;40.600;2023-04-24T00:37:21;5.95;;;2.97;;
75087;SDS011;63664;44.868;40.600;2023-04-24T00:39:50;4.13;;;2.92;;
75087;SDS011;63664;44.868;40.600;2023-04-24T00:42:22;6.72;;;2.85;;
75087;SDS011;63664;44.868;40.600;2023-04-24T00:44:48;4.75;;;3.00;;
75087;SDS011;63664;44.868;40.600;2023-04-24T00:47:15;5.30;;;2.95;;
75087;SDS011;63664;44.868;40.600;2023-04-24T00:49:41;7.65;;;3.35;;
75087;SDS011;63664;44.868;40.600;2023-04-24T00:52:08;4.95;;;3.10;;
75087;SDS011;63664;44.868;40.600;2023-04-24T00:54:39;8.07;;;3.42;;
75087;SDS011;63664;44.868;40.600;2023-04-24T00:57:06;6.53;;;3.47;;
75087;SDS011;63664;44.868;40.600;2023-04-24T00:59:32;8.85;;;3.78;;
75087;SDS011;63664;44.868;40.600;2023-04-24T01:02:04;7.88;;;3.88;;
75087;SDS011;63664;44.868;40.600;2023-04-24T01:04:35;6.80;;;3.63;;
75087;SDS011;63664;44.868;40.600;2023-04-24T01:07:01;9.13;;;4.50;;
75087;SDS011;63664;44.868;40.600;2023-04-24T01:09:30;6.90;;;3.83;;
75087;SDS011;63664;44.868;40.600;2023-04-24T01:12:02;10.45;;;4.38;;
75087;SDS011;63664;44.868;40.600;2023-04-24T01:14:31;10.75;;;4.15;;
75087;SDS011;63664;44.868;40.600;2023-04-24T01:16:59;15.07;;;5.47;;
75087;SDS011;63664;44.868;40.600;2023-04-24T01:19:27;13.20;;;5.65;;
75087;SDS011;63664;44.868;40.600;2023-04-24T01:21:53;15.95;;;5.82;;
75087;SDS011;63664;44.868;40.600;2023-04-24T01:24:28;17.52;;;6.45;;
75087;SDS011;63664;44.868;40.600;2023-04-24T01:26:57;15.07;;;6.00;;
75087;SDS011;63664;44.868;40.600;2023-04-24T01:29:23;13.13;;;5.75;;
75087;SDS011;63664;44.868;40.600;2023-04-24T01:31:52;15.82;;;6.05;;
75087;SDS011;63664;44.868;40.600;2023-04-24T01:34:21;11.18;;;5.18;;
75087;SDS011;63664;44.868;40.600;2023-04-24T01:36:47;18.77;;;6.53;;
75087;SDS011;63664;44.868;40.600;2023-04-24T01:39:13;15.57;;;5.55;;
75087;SDS011;63664;44.868;40.600;2023-04-24T01:41:46;13.30;;;5.65;;
75087;SDS011;63664;44.868;40.600;2023-04-24T01:44:12;14.23;;;5.82;;
75087;SDS011;63664;44.868;40.600;2023-04-24T01:46:38;12.13;;;6.03;;
75087;SDS011;63664;44.868;40.600;2023-04-24T01:49:05;12.35;;;5.93;;
75087;SDS011;63664;44.868;40.600;2023-04-24T01:51:33;11.10;;;6.13;;
75087;SDS011;63664;44.868;40.600;2023-04-24T01:54:05;9.68;;;4.72;;
75087;SDS011;63664;44.868;40.600;2023-04-24T01:56:33;12.70;;;5.43;;
75087;SDS011;63664;44.868;40.600;2023-04-24T01:59:02;8.82;;;4.47;;
75087;SDS011;63664;44.868;40.600;2023-04-24T02:01:35;12.32;;;5.15;;
75087;SDS011;63664;44.868;40.600;2023-04-24T02:04:04;12.75;;;4.70;;
75087;SDS011;63664;44.868;40.600;2023-04-24T02:06:35;8.70;;;4.45;;
75087;SDS011;63664;44.868;40.600;2023-04-24T02:09:01;8.50;;;4.20;;
75087;SDS011;63664;44.868;40.600;2023-04-24T02:11:31;7.95;;;4.15;;
75087;SDS011;63664;44.868;40.600;2023-04-24T02:13:57;11.02;;;4.68;;
75087;SDS011;63664;44.868;40.600;2023-04-24T02:16:23;12.40;;;5.43;;
75087;SDS011;63664;44.868;40.600;2023-04-24T02:18:50;10.77;;;4.95;;
75087;SDS011;63664;44.868;40.600;2023-04-24T02:21:16;11.60;;;5.18;;
75087;SDS011;63664;44.868;40.600;2023-04-24T02:23:45;11.48;;;4.68;;
75087;SDS011;63664;44.868;40.600;2023-04-24T02:26:12;10.50;;;5.30;;
75087;SDS011;63664;44.868;40.600;2023-04-24T02:28:40;8.85;;;5.22;;
75087;SDS011;63664;44.868;40.600;2023-04-24T02:31:10;11.98;;;4.45;;
75087;SDS011;63664;44.868;40.600;2023-04-24T02:36:06;12.82;;;5.40;;
75087;SDS011;63664;44.868;40.600;2023-04-24T02:38:37;13.27;;;4.93;;
75087;SDS011;63664;44.868;40.600;2023-04-24T02:41:04;10.07;;;4.97;;
75087;SDS011;63664;44.868;40.600;2023-04-24T02:43:34;13.93;;;4.47;;
75087;SDS011;63664;44.868;40.600;2023-04-24T02:46:00;17.67;;;5.30;;
75087;SDS011;63664;44.868;40.600;2023-04-24T02:48:28;14.63;;;5.63;;
75087;SDS011;63664;44.868;40.600;2023-04-24T02:50:54;11.90;;;5.82;;
75087;SDS011;63664;44.868;40.600;2023-04-24T02:53:23;17.63;;;6.32;;
75087;SDS011;63664;44.868;40.600;2023-04-24T02:55:50;12.45;;;5.72;;
75087;SDS011;63664;44.868;40.600;2023-04-24T02:58:18;15.05;;;6.03;;
75087;SDS011;63664;44.868;40.600;2023-04-24T03:00:46;16.55;;;6.10;;
75087;SDS011;63664;44.868;40.600;2023-04-24T03:03:15;17.77;;;5.75;;
75087;SDS011;63664;44.868;40.600;2023-04-24T03:05:44;15.50;;;6.18;;
75087;SDS011;63664;44.868;40.600;2023-04-24T03:08:15;18.83;;;7.85;;
75087;SDS011;63664;44.868;40.600;2023-04-24T03:10:44;16.73;;;6.68;;
75087;SDS011;63664;44.868;40.600;2023-04-24T03:13:10;14.88;;;6.32;;
75087;SDS011;63664;44.868;40.600;2023-04-24T03:15:37;19.13;;;6.47;;
75087;SDS011;63664;44.868;40.600;2023-04-24T03:18:04;12.75;;;5.97;;
75087;SDS011;63664;44.868;40.600;2023-04-24T03:20:33;11.88;;;5.97;;
75087;SDS011;63664;44.868;40.600;2023-04-24T03:22:59;9.98;;;5.32;;
75087;SDS011;63664;44.868;40.600;2023-04-24T03:27:58;8.90;;;4.78;;
75087;SDS011;63664;44.868;40.600;2023-04-24T03:30:35;9.82;;;4.35;;
75087;SDS011;63664;44.868;40.600;2023-04-24T03:33:04;12.30;;;3.95;;
75087;SDS011;63664;44.868;40.600;2023-04-24T03:35:36;8.73;;;2.28;;
75087;SDS011;63664;44.868;40.600;2023-04-24T03:38:07;5.47;;;2.70;;
75087;SDS011;63664;44.868;40.600;2023-04-24T03:40:41;8.68;;;3.33;;
75087;SDS011;63664;44.868;40.600;2023-04-24T03:43:37;3.63;;;2.08;;
75087;SDS011;63664;44.868;40.600;2023-04-24T03:46:06;5.60;;;2.42;;
75087;SDS011;63664;44.868;40.600;2023-04-24T03:48:39;5.05;;;2.80;;
75087;SDS011;63664;44.868;40.600;2023-04-24T03:51:08;4.32;;;2.10;;
75087;SDS011;63664;44.868;40.600;2023-04-24T03:53:35;8.00;;;2.67;;
75087;SDS011;63664;44.868;40.600;2023-04-24T03:56:05;4.53;;;2.58;;
75087;SDS011;63664;44.868;40.600;2023-04-24T03:58:34;7.13;;;2.63;;
75087;SDS011;63664;44.868;40.600;2023-04-24T04:01:04;5.00;;;2.15;;
75087;SDS011;63664;44.868;40.600;2023-04-24T04:03:46;5.97;;;2.08;;
75087;SDS011;63664;44.868;40.600;2023-04-24T04:06:18;3.72;;;2.10;;
75087;SDS011;63664;44.868;40.600;2023-04-24T04:08:45;4.05;;;2.08;;
75087;SDS011;63664;44.868;40.600;2023-04-24T04:11:12;3.95;;;2.30;;
75087;SDS011;63664;44.868;40.600;2023-04-24T04:13:39;4.70;;;2.25;;
75087;SDS011;63664;44.868;40.600;2023-04-24T04:16:08;5.15;;;2.20;;
75087;SDS011;63664;44.868;40.600;2023-04-24T04:18:38;6.65;;;2.20;;
75087;SDS011;63664;44.868;40.600;2023-04-24T04:21:06;4.22;;;2.13;;
75087;SDS011;63664;44.868;40.600;2023-04-24T04:23:34;5.07;;;2.28;;
75087;SDS011;63664;44.868;40.600;2023-04-24T04:26:24;3.83;;;2.00;;
75087;SDS011;63664;44.868;40.600;2023-04-24T04:29:11;4.10;;;1.80;;
75087;SDS011;63664;44.868;40.600;2023-04-24T04:31:42;3.42;;;2.10;;
75087;SDS011;63664;44.868;40.600;2023-04-24T04:34:12;3.70;;;2.28;;
75087;SDS011;63664;44.868;40.600;2023-04-24T04:36:42;4.47;;;2.00;;
75087;SDS011;63664;44.868;40.600;2023-04-24T04:39:26;3.55;;;1.80;;
75087;SDS011;63664;44.868;40.600;2023-04-24T04:42:01;6.25;;;2.47;;
75087;SDS011;63664;44.868;40.600;2023-04-24T04:44:41;7.28;;;2.35;;
75087;SDS011;63664;44.868;40.600;2023-04-24T04:47:16;4.55;;;1.83;;
75087;SDS011;63664;44.868;40.600;2023-04-24T04:49:50;3.75;;;2.10;;
75087;SDS011;63664;44.868;40.600;2023-04-24T04:52:24;6.82;;;2.10;;
75087;SDS011;63664;44.868;40.600;2023-04-24T06:47:01;4.10;;;2.25;;
75087;SDS011;63664;44.868;40.600;2023-04-24T06:49:30;3.95;;;2.17;;
75087;SDS011;63664;44.868;40.600;2023-04-24T06:51:59;6.25;;;2.30;;
75087;SDS011;63664;44.868;40.600;2023-04-24T06:54:25;4.63;;;2.75;;
75087;SDS011;63664;44.868;40.600;2023-04-24T06:56:55;5.43;;;2.30;;
75087;SDS011;63664;44.868;40.600;2023-04-24T06:59:23;7.47;;;3.90;;
75087;SDS011;63664;44.868;40.600;2023-04-24T07:01:50;3.83;;;2.25;;
75087;SDS011;63664;44.868;40.600;2023-04-24T07:04:21;11.82;;;7.07;;
75087;SDS011;63664;44.868;40.600;2023-04-24T07:06:50;4.53;;;2.30;;
75087;SDS011;63664;44.868;40.600;2023-04-24T07:09:22;4.50;;;2.85;;
75087;SDS011;63664;44.868;40.600;2023-04-24T07:11:51;6.95;;;4.40;;
75087;SDS011;63664;44.868;40.600;2023-04-24T07:14:18;6.95;;;3.63;;
75087;SDS011;63664;44.868;40.600;2023-04-24T07:16:48;2.65;;;1.83;;
75087;SDS011;63664;44.868;40.600;2023-04-24T07:19:15;5.72;;;2.35;;
75087;SDS011;63664;44.868;40.600;2023-04-24T07:21:46;6.78;;;2.60;;
75087;SDS011;63664;44.868;40.600;2023-04-24T07:24:12;4.30;;;2.17;;
75087;SDS011;63664;44.868;40.600;2023-04-24T07:26:41;5.18;;;2.88;;
75087;SDS011;63664;44.868;40.600;2023-04-24T07:29:09;3.15;;;2.20;;
75087;SDS011;63664;44.868;40.600;2023-04-24T07:31:36;4.80;;;2.10;;
75087;SDS011;63664;44.868;40.600;2023-04-24T07:34:06;3.80;;;2.10;;
75087;SDS011;63664;44.868;40.600;2023-04-24T07:36:35;4.68;;;1.98;;
75087;SDS011;63664;44.868;40.600;2023-04-24T07:39:09;5.85;;;3.35;;
75087;SDS011;63664;44.868;40.600;2023-04-24T07:41:37;4.15;;;1.98;;
75087;SDS011;63664;44.868;40.600;2023-04-24T07:44:08;4.43;;;3.08;;
75087;SDS011;63664;44.868;40.600;2023-04-24T07:46:37;5.20;;;2.80;;
75087;SDS011;63664;44.868;40.600;2023-04-24T07:49:07;4.07;;;2.53;;
75087;SDS011;63664;44.868;40.600;2023-04-24T07:51:33;8.35;;;2.80;;
75087;SDS011;63664;44.868;40.600;2023-04-24T07:54:06;4.15;;;2.50;;
75087;SDS011;63664;44.868;40.600;2023-04-24T07:56:35;2.60;;;1.77;;
75087;SDS011;63664;44.868;40.600;2023-04-24T07:59:04;2.95;;;2.50;;
75087;SDS011;63664;44.868;40.600;2023-04-24T08:01:31;3.47;;;1.92;;
75087;SDS011;63664;44.868;40.600;2023-04-24T08:04:06;3.72;;;2.33;;
75087;SDS011;63664;44.868;40.600;2023-04-24T08:06:36;6.25;;;2.22;;
75087;SDS011;63664;44.868;40.600;2023-04-24T08:09:04;5.97;;;2.20;;
75087;SDS011;63664;44.868;40.600;2023-04-24T08:11:31;5.95;;;2.53;;
75087;SDS011;63664;44.868;40.600;2023-04-24T08:14:01;3.20;;;2.45;;
75087;SDS011;63664;44.868;40.600;2023-04-24T08:16:27;5.47;;;2.40;;
75087;SDS011;63664;44.868;40.600;2023-04-24T08:18:58;4.57;;;2.85;;
75087;SDS011;63664;44.868;40.600;2023-04-24T08:21:27;3.35;;;2.30;;
75087;SDS011;63664;44.868;40.600;2023-04-24T08:23:53;7.63;;;3.35;;
75087;SDS011;63664;44.868;40.600;2023-04-24T08:26:22;7.25;;;3.40;;
75087;SDS011;63664;44.868;40.600;2023-04-24T08:28:48;8.55;;;3.83;;
75087;SDS011;63664;44.868;40.600;2023-04-24T08:31:19;9.07;;;3.53;;
75087;SDS011;63664;44.868;40.600;2023-04-24T08:33:48;4.97;;;3.47;;
75087;SDS011;63664;44.868;40.600;2023-04-24T08:36:14;7.85;;;4.10;;
75087;SDS011;63664;44.868;40.600;2023-04-24T08:38:40;7.57;;;4.18;;
75087;SDS011;63664;44.868;40.600;2023-04-24T08:41:08;6.20;;;3.50;;
75087;SDS011;63664;44.868;40.600;2023-04-24T08:43:38;15.73;;;4.20;;
75087;SDS011;63664;44.868;40.600;2023-04-24T08:46:07;12.15;;;4.40;;
75087;SDS011;63664;44.868;40.600;2023-04-24T08:48:35;11.70;;;4.90;;
75087;SDS011;63664;44.868;40.600;2023-04-24T08:51:01;11.20;;;5.70;;
75087;SDS011;63664;44.868;40.600;2023-04-24T08:53:35;7.55;;;4.28;;
75087;SDS011;63664;44.868;40.600;2023-04-24T08:56:02;8.65;;;4.68;;
75087;SDS011;63664;44.868;40.600;2023-04-24T08:58:32;10.15;;;4.40;;
75087;SDS011;63664;44.868;40.600;2023-04-24T09:00:59;6.38;;;3.65;;
75087;SDS011;63664;44.868;40.600;2023-04-24T09:03:28;6.35;;;3.80;;
75087;SDS011;63664;44.868;40.600;2023-04-24T09:05:55;6.32;;;3.40;;
75087;SDS011;63664;44.868;40.600;2023-04-24T09:08:24;5.75;;;3.63;;
75087;SDS011;63664;44.868;40.600;2023-04-24T09:10:51;5.13;;;3.10;;
75087;SDS011;63664;44.868;40.600;2023-04-24T09:13:18;9.10;;;3.30;;
75087;SDS011;63664;44.868;40.600;2023-04-24T09:15:47;7.28;;;3.55;;
75087;SDS011;63664;44.868;40.600;2023-04-24T09:18:15;10.00;;;3.25;;
75087;SDS011;63664;44.868;40.600;2023-04-24T09:20:59;4.30;;;2.55;;
75087;SDS011;63664;44.868;40.600;2023-04-24T09:23:35;4.70;;;3.05;;
75087;SDS011;63664;44.868;40.600;2023-04-24T09:26:02;3.58;;;2.58;;
75087;SDS011;63664;44.868;40.600;2023-04-24T09:28:33;6.28;;;2.83;;
75087;SDS011;63664;44.868;40.600;2023-04-24T09:31:08;4.15;;;2.65;;
75087;SDS011;63664;44.868;40.600;2023-04-24T09:33:37;3.35;;;1.88;;
75087;SDS011;63664;44.868;40.600;2023-04-24T09:36:19;3.58;;;2.53;;
75087;SDS011;63664;44.868;40.600;2023-04-24T09:38:57;3.03;;;2.20;;
75087;SDS011;63664;44.868;40.600;2023-04-24T09:41:29;6.78;;;2.30;;
75087;SDS011;63664;44.868;40.600;2023-04-24T09:43:58;4.47;;;1.83;;
75087;SDS011;63664;44.868;40.600;2023-04-24T09:46:45;4.90;;;1.80;;
75087;SDS011;63664;44.868;40.600;2023-04-24T09:49:16;3.60;;;2.30;;
75087;SDS011;63664;44.868;40.600;2023-04-24T09:51:50;3.33;;;2.13;;
75087;SDS011;63664;44.868;40.600;2023-04-24T09:54:20;3.53;;;2.30;;
75087;SDS011;63664;44.868;40.600;2023-04-24T09:56:48;6.03;;;2.72;;
75087;SDS011;63664;44.868;40.600;2023-04-24T09:59:19;3.13;;;2.20;;
75087;SDS011;63664;44.868;40.600;2023-04-24T10:01:46;2.88;;;1.75;;
75087;SDS011;63664;44.868;40.600;2023-04-24T10:04:24;4.00;;;2.20;;
75087;SDS011;63664;44.868;40.600;2023-04-24T10:06:53;4.72;;;2.22;;
75087;SDS011;63664;44.868;40.600;2023-04-24T10:09:23;2.22;;;1.65;;
75087;SDS011;63664;44.868;40.600;2023-04-24T10:11:51;7.38;;;2.08;;
75087;SDS011;63664;44.868;40.600;2023-04-24T10:14:23;3.03;;;1.80;;
75087;SDS011;63664;44.868;40.600;2023-04-24T10:16:53;4.95;;;2.70;;
75087;SDS011;63664;44.868;40.600;2023-04-24T10:19:25;1.67;;;1.40;;
75087;SDS011;63664;44.868;40.600;2023-04-24T10:21:51;2.70;;;1.80;;
75087;SDS011;63664;44.868;40.600;2023-04-24T10:24:25;5.65;;;2.20;;
75087;SDS011;63664;44.868;40.600;2023-04-24T10:26:53;2.88;;;1.77;;
75087;SDS011;63664;44.868;40.600;2023-04-24T10:29:23;2.58;;;1.95;;
75087;SDS011;63664;44.868;40.600;2023-04-24T10:31:51;4.60;;;2.05;;
75087;SDS011;63664;44.868;40.600;2023-04-24T10:34:22;2.58;;;2.10;;
75087;SDS011;63664;44.868;40.600;2023-04-24T10:36:52;3.35;;;1.70;;
75087;SDS011;63664;44.868;40.600;2023-04-24T10:41:48;2.00;;;1.52;;
75087;SDS011;63664;44.868;40.600;2023-04-24T10:44:17;4.30;;;1.50;;
75087;SDS011;63664;44.868;40.600;2023-04-24T10:46:53;3.95;;;1.55;;
75087;SDS011;63664;44.868;40.600;2023-04-24T10:49:33;3.55;;;1.48;;
75087;SDS011;63664;44.868;40.600;2023-04-24T10:52:00;4.13;;;1.52;;
75087;SDS011;63664;44.868;40.600;2023-04-24T10:59:49;2.80;;;1.88;;
75087;SDS011;63664;44.868;40.600;2023-04-24T11:02:38;3.17;;;2.00;;
75087;SDS011;63664;44.868;40.600;2023-04-24T11:05:09;3.40;;;1.55;;
75087;SDS011;63664;44.868;40.600;2023-04-24T11:11:31;28.50;;;12.73;;
75087;SDS011;63664;44.868;40.600;2023-04-24T11:16:28;10.88;;;4.80;;
75087;SDS011;63664;44.868;40.600;2023-04-24T11:19:02;8.32;;;2.60;;
75087;SDS011;63664;44.868;40.600;2023-04-24T11:21:56;3.38;;;2.10;;
75087;SDS011;63664;44.868;40.600;2023-04-24T11:24:49;4.93;;;2.28;;
75087;SDS011;63664;44.868;40.600;2023-04-24T11:27:26;3.65;;;2.60;;
75087;SDS011;63664;44.868;40.600;2023-04-24T11:34:56;3.45;;;2.13;;
75087;SDS011;63664;44.868;40.600;2023-04-24T11:37:39;6.40;;;2.55;;
75087;SDS011;63664;44.868;40.600;2023-04-24T11:40:10;6.10;;;3.25;;
75087;SDS011;63664;44.868;40.600;2023-04-24T11:42:44;5.00;;;3.08;;
75087;SDS011;63664;44.868;40.600;2023-04-24T11:45:15;5.25;;;2.65;;
75087;SDS011;63664;44.868;40.600;2023-04-24T11:47:46;5.90;;;3.17;;
75087;SDS011;63664;44.868;40.600;2023-04-24T11:50:13;7.03;;;3.95;;
75087;SDS011;63664;44.868;40.600;2023-04-24T11:52:41;13.35;;;6.70;;
75087;SDS011;63664;44.868;40.600;2023-04-24T11:57:44;12.68;;;4.72;;
75087;SDS011;63664;44.868;40.600;2023-04-24T12:00:15;10.18;;;4.22;;
75087;SDS011;63664;44.868;40.600;2023-04-24T12:02:44;7.47;;;3.35;;
75087;SDS011;63664;44.868;40.600;2023-04-24T12:08:10;7.45;;;3.10;;
75087;SDS011;63664;44.868;40.600;2023-04-24T12:10:36;5.82;;;3.17;;
75087;SDS011;63664;44.868;40.600;2023-04-24T12:13:03;5.28;;;2.97;;
75087;SDS011;63664;44.868;40.600;2023-04-24T12:15:39;8.77;;;3.42;;
75087;SDS011;63664;44.868;40.600;2023-04-24T12:18:11;9.40;;;3.13;;
75087;SDS011;63664;44.868;40.600;2023-04-24T12:20:40;9.55;;;3.10;;
75087;SDS011;63664;44.868;40.600;2023-04-24T12:23:06;5.22;;;3.53;;
75087;SDS011;63664;44.868;40.600;2023-04-24T12:25:33;7.72;;;4.05;;
75087;SDS011;63664;44.868;40.600;2023-04-24T12:30:31;9.55;;;4.10;;
75087;SDS011;63664;44.868;40.600;2023-04-24T12:32:59;8.02;;;3.88;;
75087;SDS011;63664;44.868;40.600;2023-04-24T12:35:29;5.78;;;3.65;;
75087;SDS011;63664;44.868;40.600;2023-04-24T12:38:11;6.30;;;3.60;;
75087;SDS011;63664;44.868;40.600;2023-04-24T13:03:55;11.52;;;3.83;;
75087;SDS011;63664;44.868;40.600;2023-04-24T13:06:22;9.70;;;4.00;;
75087;SDS011;63664;44.868;40.600;2023-04-24T13:08:48;7.68;;;3.80;;
75087;SDS011;63664;44.868;40.600;2023-04-24T13:11:17;7.28;;;4.07;;
75087;SDS011;63664;44.868;40.600;2023-04-24T13:13:43;8.23;;;4.75;;
75087;SDS011;63664;44.868;40.600;2023-04-24T13:16:09;8.38;;;3.88;;
75087;SDS011;63664;44.868;40.600;2023-04-24T13:18:36;11.52;;;4.63;;
75087;SDS011;63664;44.868;40.600;2023-04-24T13:21:04;9.57;;;4.82;;
75087;SDS011;63664;44.868;40.600;2023-04-24T13:23:30;9.93;;;4.82;;
75087;SDS011;63664;44.868;40.600;2023-04-24T13:26:02;8.60;;;4.72;;
75087;SDS011;63664;44.868;40.600;2023-04-24T13:28:33;9.45;;;4.38;;
75087;SDS011;63664;44.868;40.600;2023-04-24T13:31:02;12.63;;;4.30;;
75087;SDS011;63664;44.868;40.600;2023-04-24T13:33:28;7.38;;;4.55;;
75087;SDS011;63664;44.868;40.600;2023-04-24T13:35:54;6.93;;;4.32;;
75087;SDS011;63664;44.868;40.600;2023-04-24T13:38:21;9.55;;;4.88;;
75087;SDS011;63664;44.868;40.600;2023-04-24T13:40:55;9.13;;;4.55;;
75087;SDS011;63664;44.868;40.600;2023-04-24T13:43:21;9.48;;;4.75;;
75087;SDS011;63664;44.868;40.600;2023-04-24T13:45:48;11.55;;;5.00;;
75087;SDS011;63664;44.868;40.600;2023-04-24T13:48:16;9.95;;;4.70;;
75087;SDS011;63664;44.868;40.600;2023-04-24T13:50:46;9.10;;;4.32;;
75087;SDS011;63664;44.868;40.600;2023-04-24T13:53:17;7.70;;;4.88;;
75087;SDS011;63664;44.868;40.600;2023-04-24T14:46:27;9.65;;;5.93;;
75087;SDS011;63664;44.868;40.600;2023-04-24T14:49:01;12.50;;;6.28;;
75087;SDS011;63664;44.868;40.600;2023-04-24T14:51:30;8.80;;;5.22;;
75087;SDS011;63664;44.868;40.600;2023-04-24T14:53:58;11.57;;;5.20;;
75087;SDS011;63664;44.868;40.600;2023-04-24T14:56:28;10.63;;;5.70;;
75087;SDS011;63664;44.868;40.600;2023-04-24T14:58:54;10.30;;;5.55;;
75087;SDS011;63664;44.868;40.600;2023-04-24T15:01:21;11.82;;;5.93;;
75087;SDS011;63664;44.868;40.600;2023-04-24T15:03:49;11.23;;;5.95;;
75087;SDS011;63664;44.868;40.600;2023-04-24T15:06:17;10.32;;;5.55;;
75087;SDS011;63664;44.868;40.600;2023-04-24T15:08:43;12.02;;;5.97;;
75087;SDS011;63664;44.868;40.600;2023-04-24T15:11:12;11.13;;;6.47;;
75087;SDS011;63664;44.868;40.600;2023-04-24T15:13:41;11.48;;;5.32;;
75087;SDS011;63664;44.868;40.600;2023-04-24T15:16:10;12.20;;;5.82;;
75087;SDS011;63664;44.868;40.600;2023-04-24T15:18:36;11.70;;;5.63;;
75087;SDS011;63664;44.868;40.600;2023-04-24T15:21:02;11.48;;;5.55;;
75087;SDS011;63664;44.868;40.600;2023-04-24T15:23:32;10.45;;;5.10;;
75087;SDS011;63664;44.868;40.600;2023-04-24T15:25:58;10.93;;;5.03;;
75087;SDS011;63664;44.868;40.600;2023-04-24T15:28:25;9.65;;;6.07;;
75087;SDS011;63664;44.868;40.600;2023-04-24T15:30:54;11.50;;;6.10;;
75087;SDS011;63664;44.868;40.600;2023-04-24T15:33:20;13.20;;;5.60;;
75087;SDS011;63664;44.868;40.600;2023-04-24T15:35:46;8.27;;;5.20;;
75087;SDS011;63664;44.868;40.600;2023-04-24T15:46:13;11.40;;;5.25;;
75087;SDS011;63664;44.868;40.600;2023-04-24T15:48:41;10.88;;;6.03;;
75087;SDS011;63664;44.868;40.600;2023-04-24T15:51:08;10.32;;;5.32;;
75087;SDS011;63664;44.868;40.600;2023-04-24T15:53:34;10.98;;;5.72;;
75087;SDS011;63664;44.868;40.600;2023-04-24T15:56:00;9.95;;;5.63;;
75087;SDS011;63664;44.868;40.600;2023-04-24T15:58:29;12.15;;;5.70;;
75087;SDS011;63664;44.868;40.600;2023-04-24T16:00:55;10.57;;;5.97;;
75087;SDS011;63664;44.868;40.600;2023-04-24T16:03:27;11.98;;;5.90;;
75087;SDS011;63664;44.868;40.600;2023-04-24T16:05:53;10.10;;;5.68;;
75087;SDS011;63664;44.868;40.600;2023-04-24T16:08:19;9.77;;;5.40;;
75087;SDS011;63664;44.868;40.600;2023-04-24T16:10:47;9.60;;;5.70;;
75087;SDS011;63664;44.868;40.600;2023-04-24T16:13:14;9.88;;;5.70;;
75087;SDS011;63664;44.868;40.600;2023-04-24T16:15:45;8.57;;;5.38;;
75087;SDS011;63664;44.868;40.600;2023-04-24T16:18:12;14.35;;;5.85;;
75087;SDS011;63664;44.868;40.600;2023-04-24T16:20:42;9.82;;;5.90;;
75087;SDS011;63664;44.868;40.600;2023-04-24T16:23:08;8.50;;;4.93;;
75087;SDS011;63664;44.868;40.600;2023-04-24T16:25:34;8.65;;;5.68;;
75087;SDS011;63664;44.868;40.600;2023-04-24T16:28:01;12.48;;;5.63;;
75087;SDS011;63664;44.868;40.600;2023-04-24T16:30:30;10.15;;;5.15;;
75087;SDS011;63664;44.868;40.600;2023-04-24T16:33:01;10.20;;;6.00;;
75087;SDS011;63664;44.868;40.600;2023-04-24T16:35:32;9.43;;;5.47;;
75087;SDS011;63664;44.868;40.600;2023-04-24T16:38:00;9.05;;;5.68;;
75087;SDS011;63664;44.868;40.600;2023-04-24T16:40:27;7.45;;;5.20;;
75087;SDS011;63664;44.868;40.600;2023-04-24T16:42:54;13.15;;;5.75;;
75087;SDS011;63664;44.868;40.600;2023-04-24T16:45:25;11.07;;;5.82;;
75087;SDS011;63664;44.868;40.600;2023-04-24T16:47:51;9.52;;;5.88;;
75087;SDS011;63664;44.868;40.600;2023-04-24T16:50:20;8.70;;;5.30;;
75087;SDS011;63664;44.868;40.600;2023-04-24T16:52:46;9.45;;;6.05;;
75087;SDS011;63664;44.868;40.600;2023-04-24T16:55:15;11.82;;;5.45;;
75087;SDS011;63664;44.868;40.600;2023-04-24T16:57:41;11.35;;;5.53;;
75087;SDS011;63664;44.868;40.600;2023-04-24T17:00:08;7.95;;;5.25;;
75087;SDS011;63664;44.868;40.600;2023-04-24T17:02:35;9.00;;;5.00;;
75087;SDS011;63664;44.868;40.600;2023-04-24T17:05:04;8.50;;;4.93;;
75087;SDS011;63664;44.868;40.600;2023-04-24T17:07:33;11.18;;;5.28;;
75087;SDS011;63664;44.868;40.600;2023-04-24T17:10:04;6.93;;;4.47;;
75087;SDS011;63664;44.868;40.600;2023-04-24T17:12:36;6.90;;;4.38;;
75087;SDS011;63664;44.868;40.600;2023-04-24T17:15:05;7.55;;;4.70;;
75087;SDS011;63664;44.868;40.600;2023-04-24T17:17:32;7.88;;;4.50;;
75087;SDS011;63664;44.868;40.600;2023-04-24T17:20:00;8.18;;;4.47;;
75087;SDS011;63664;44.868;40.600;2023-04-24T17:22:30;9.02;;;4.53;;
75087;SDS011;63664;44.868;40.600;2023-04-24T17:24:56;10.25;;;5.13;;
75087;SDS011;63664;44.868;40.600;2023-04-24T17:27:22;7.57;;;4.47;;
75087;SDS011;63664;44.868;40.600;2023-04-24T17:29:51;10.60;;;5.25;;
75087;SDS011;63664;44.868;40.600;2023-04-24T17:32:17;8.98;;;4.43;;
75087;SDS011;63664;44.868;40.600;2023-04-24T17:34:46;7.55;;;4.72;;
75087;SDS011;63664;44.868;40.600;2023-04-24T17:37:15;9.20;;;5.00;;
75087;SDS011;63664;44.868;40.600;2023-04-24T17:39:46;9.93;;;5.35;;
75087;SDS011;63664;44.868;40.600;2023-04-24T17:42:13;9.18;;;5.35;;
75087;SDS011;63664;44.868;40.600;2023-04-24T17:44:39;7.00;;;4.25;;
75087;SDS011;63664;44.868;40.600;2023-04-24T17:47:05;7.78;;;4.50;;
75087;SDS011;63664;44.868;40.600;2023-04-24T17:49:34;9.43;;;5.03;;
75087;SDS011;63664;44.868;40.600;2023-04-24T17:52:03;10.38;;;5.28;;
75087;SDS011;63664;44.868;40.600;2023-04-24T17:54:32;7.78;;;5.00;;
75087;SDS011;63664;44.868;40.600;2023-04-24T17:57:05;9.57;;;4.70;;
75087;SDS011;63664;44.868;40.600;2023-04-24T17:59:34;6.32;;;4.43;;
75087;SDS011;63664;44.868;40.600;2023-04-24T18:02:02;9.50;;;4.75;;
75087;SDS011;63664;44.868;40.600;2023-04-24T18:04:31;8.52;;;5.20;;
75087;SDS011;63664;44.868;40.600;2023-04-24T18:06:59;8.27;;;4.75;;
75087;SDS011;63664;44.868;40.600;2023-04-24T18:09:25;8.63;;;5.18;;
75087;SDS011;63664;44.868;40.600;2023-04-24T18:11:54;9.75;;;5.30;;
75087;SDS011;63664;44.868;40.600;2023-04-24T18:14:23;7.70;;;5.18;;
75087;SDS011;63664;44.868;40.600;2023-04-24T18:16:55;8.38;;;4.40;;
75087;SDS011;63664;44.868;40.600;2023-04-24T18:19:23;9.35;;;5.70;;
75087;SDS011;63664;44.868;40.600;2023-04-24T18:21:52;8.60;;;5.45;;
75087;SDS011;63664;44.868;40.600;2023-04-24T18:24:18;9.88;;;5.80;;
75087;SDS011;63664;44.868;40.600;2023-04-24T18:26:47;13.35;;;6.32;;
75087;SDS011;63664;44.868;40.600;2023-04-24T18:29:18;11.00;;;6.60;;
75087;SDS011;63664;44.868;40.600;2023-04-24T18:31:46;8.95;;;5.63;;